Date,TemperatureHighF,TemperatureAvgF,TemperatureLowF,DewpointHighF,DewpointAvgF,DewpointLowF,HumidityHigh,HumidityAvg,HumidityLow,PressureMaxIn,PressureMinIn,WindSpeedMaxMPH,WindSpeedAvgMPH,GustSpeedMaxMPH,PrecipitationSumIn
2013-5-1,82.6,64.8,42.1,61.1,49.6,38.2,87,60,43,29.41,29.00,24,8,25,0.24
2013-5-2,42.6,38.1,34.5,40.1,36.2,33.3,98,93,84,29.56,29.38,28,10,30,1.53
2013-5-3,41.5,38.8,35.4,37.1,34.6,30.6,98,85,66,29.44,29.00,25,10,25,1.70
2013-5-4,53.2,44.5,34.5,47.9,41.9,34.0,98,91,68,29.20,28.97,17,6,18,0.13
2013-5-5,56.8,50.9,46.2,50.7,48.1,45.7,98,90,76,29.29,29.14,16,8,18,0.09
2013-5-6,76.1,58.8,51.1,57.0,51.8,48.3,96,80,46,29.29,29.17,13,4,13,0.09
2013-5-7,80.6,63.7,44.2,59.0,48.5,42.9,98,63,30,29.26,29.14,11,2,12,0.09
2013-5-8,79.5,66.6,56.5,61.0,56.5,48.1,92,72,44,29.17,29.03,23,6,24,0.20
2013-5-9,75.2,65.8,58.5,62.3,58.3,53.9,97,78,49,29.09,29.00,15,4,16,0.04
2013-5-10,73.8,60.4,50.4,57.0,50.7,45.2,96,73,37,29.20,29.06,18,6,18,0.09
2013-5-11,69.3,57.8,43.3,50.5,34.8,24.4,93,48,23,29.41,29.17,26,7,32,0.09
2013-5-12,73.9,55.5,36.3,40.3,33.8,27.5,78,48,23,29.47,29.29,12,1,12,2.12
2013-5-13,82.4,66.8,47.5,56.3,48.3,39.4,81,54,32,29.32,29.06,18,5,18,0.09
2013-5-14,95.0,78.9,63.9,55.6,49.5,41.4,72,40,17,29.09,28.94,28,7,31,0.09
2013-5-15,89.4,76.1,66.0,66.8,59.6,51.9,84,58,38,29.03,28.94,21,6,21,0.09
2013-5-16,86.0,73.1,62.2,64.9,60.7,57.7,92,68,41,29.06,28.94,17,4,18,0.00
2013-5-17,86.7,71.5,61.9,64.6,60.1,57.1,93,70,40,29.09,29.00,57,2,57,0.00
2013-5-18,87.6,76.5,62.8,72.0,66.1,58.0,89,72,51,29.06,28.88,39,6,39,0.00
2013-5-19,86.9,71.4,64.0,72.6,63.9,58.4,95,79,53,28.97,28.70,37,8,38,0.49
2013-5-20,86.5,74.3,63.9,69.1,63.0,52.3,90,69,43,28.91,28.73,20,6,24,0.00
2013-5-21,76.8,66.4,57.9,54.7,50.6,46.5,79,58,37,28.91,28.82,20,6,23,0.00
2013-5-22,69.8,62.0,54.0,52.7,50.2,47.3,86,66,50,29.12,28.88,20,7,23,0.05
2013-5-23,74.1,62.2,52.2,55.3,51.0,47.7,91,68,46,29.41,29.12,16,5,19,0.00
2013-5-24,78.1,65.2,47.5,56.9,47.6,43.9,94,57,33,29.47,29.26,21,6,22,0.00
2013-5-25,85.8,74.6,64.2,65.8,59.4,46.4,78,60,44,29.35,29.12,25,8,26,0.00
2013-5-26,85.8,77.3,69.4,69.6,66.5,0.0,88,70,54,29.20,29.03,25,9,26,0.00
2013-5-27,84.9,73.4,63.3,73.2,65.5,60.5,97,77,60,29.09,28.76,25,9,28,0.12
2013-5-28,81.7,75.4,68.2,73.8,68.0,61.8,85,78,70,29.00,28.82,26,7,28,0.00
2013-5-29,81.0,74.8,64.6,69.2,65.1,61.3,90,72,60,28.97,28.76,33,12,39,2.00
2013-5-30,80.8,68.0,63.9,67.0,63.4,61.4,98,86,59,28.91,28.73,25,5,25,0.00
2013-5-31,87.4,70.2,60.3,70.4,64.2,56.9,98,83,50,28.91,28.76,24,3,24,0.00